Terminal Aerodrome Forecast
Issued by NWS Rapid City, SD

Home | Current Version | Previous Version | Graphics & Text | Print | Product List | Glossary On
Versions: 1 2 3 4 5 6 7 8 9 10 11 12 13 14 15 16 17
000
FTUS43 KUNR 250500
TAFRAP
TAF
KRAP 250520Z 2506/2606 33017KT P6SM SCT100
     FM250700 34024G34KT P6SM SCT100
     FM251000 35015KT P6SM SKC
     FM251800 12010KT P6SM SCT100=

USA.gov is the U.S. government's official web portal to all federal, state and local government web resources and services.